sensor_id;sensor_type;location;lat;lon;timestamp;P1;durP1;ratioP1;P2;durP2;ratioP2
2406;SDS011;37709;53.480;9.688;2023-01-01T00:00:17;10.27;;;3.33;;
2406;SDS011;37709;53.480;9.688;2023-01-01T00:02:45;6.03;;;3.50;;
2406;SDS011;37709;53.480;9.688;2023-01-01T00:05:12;7.60;;;3.60;;
2406;SDS011;37709;53.480;9.688;2023-01-01T00:07:39;7.40;;;3.83;;
2406;SDS011;37709;53.480;9.688;2023-01-01T00:10:08;5.00;;;3.13;;
2406;SDS011;37709;53.480;9.688;2023-01-01T00:12:58;7.43;;;3.33;;
2406;SDS011;37709;53.480;9.688;2023-01-01T00:15:26;7.23;;;3.63;;
2406;SDS011;37709;53.480;9.688;2023-01-01T00:17:54;6.80;;;4.13;;
2406;SDS011;37709;53.480;9.688;2023-01-01T00:20:22;6.70;;;5.23;;
2406;SDS011;37709;53.480;9.688;2023-01-01T00:22:49;6.40;;;4.53;;
2406;SDS011;37709;53.480;9.688;2023-01-01T00:25:22;9.30;;;4.53;;
2406;SDS011;37709;53.480;9.688;2023-01-01T00:27:50;9.20;;;4.93;;
2406;SDS011;37709;53.480;9.688;2023-01-01T00:30:17;8.93;;;4.83;;
2406;SDS011;37709;53.480;9.688;2023-01-01T00:32:45;9.10;;;4.90;;
2406;SDS011;37709;53.480;9.688;2023-01-01T00:35:25;8.20;;;5.20;;
2406;SDS011;37709;53.480;9.688;2023-01-01T00:37:53;7.70;;;5.23;;
2406;SDS011;37709;53.480;9.688;2023-01-01T00:40:21;8.33;;;5.60;;
2406;SDS011;37709;53.480;9.688;2023-01-01T00:42:49;7.10;;;4.40;;
2406;SDS011;37709;53.480;9.688;2023-01-01T00:45:19;5.50;;;4.20;;
2406;SDS011;37709;53.480;9.688;2023-01-01T00:47:49;7.77;;;5.00;;
2406;SDS011;37709;53.480;9.688;2023-01-01T00:50:17;7.03;;;4.60;;
2406;SDS011;37709;53.480;9.688;2023-01-01T00:52:46;7.83;;;4.10;;
2406;SDS011;37709;53.480;9.688;2023-01-01T00:55:15;8.10;;;4.63;;
2406;SDS011;37709;53.480;9.688;2023-01-01T00:57:42;9.50;;;4.07;;
2406;SDS011;37709;53.480;9.688;2023-01-01T01:00:10;9.23;;;4.57;;
2406;SDS011;37709;53.480;9.688;2023-01-01T01:02:38;5.70;;;3.77;;
2406;SDS011;37709;53.480;9.688;2023-01-01T01:05:05;8.70;;;4.23;;
2406;SDS011;37709;53.480;9.688;2023-01-01T01:07:36;7.90;;;3.10;;
2406;SDS011;37709;53.480;9.688;2023-01-01T01:10:04;7.30;;;3.10;;
2406;SDS011;37709;53.480;9.688;2023-01-01T01:12:33;5.20;;;3.70;;
2406;SDS011;37709;53.480;9.688;2023-01-01T01:15:01;8.40;;;4.33;;
2406;SDS011;37709;53.480;9.688;2023-01-01T01:17:30;10.77;;;4.10;;
2406;SDS011;37709;53.480;9.688;2023-01-01T01:19:58;9.00;;;4.07;;
2406;SDS011;37709;53.480;9.688;2023-01-01T01:22:25;5.40;;;3.90;;
2406;SDS011;37709;53.480;9.688;2023-01-01T01:24:55;5.37;;;3.43;;
2406;SDS011;37709;53.480;9.688;2023-01-01T01:27:23;7.10;;;3.63;;
2406;SDS011;37709;53.480;9.688;2023-01-01T01:29:50;4.40;;;2.70;;
2406;SDS011;37709;53.480;9.688;2023-01-01T01:32:19;6.77;;;3.73;;
2406;SDS011;37709;53.480;9.688;2023-01-01T01:34:46;5.27;;;3.20;;
2406;SDS011;37709;53.480;9.688;2023-01-01T01:37:13;8.00;;;3.63;;
2406;SDS011;37709;53.480;9.688;2023-01-01T01:39:41;7.43;;;3.10;;
2406;SDS011;37709;53.480;9.688;2023-01-01T01:42:13;7.17;;;3.50;;
2406;SDS011;37709;53.480;9.688;2023-01-01T01:47:31;8.13;;;3.77;;
2406;SDS011;37709;53.480;9.688;2023-01-01T01:50:20;5.90;;;4.00;;
2406;SDS011;37709;53.480;9.688;2023-01-01T01:53:08;6.30;;;4.07;;
2406;SDS011;37709;53.480;9.688;2023-01-01T01:55:37;4.47;;;2.37;;
2406;SDS011;37709;53.480;9.688;2023-01-01T01:58:08;4.87;;;3.57;;
2406;SDS011;37709;53.480;9.688;2023-01-01T02:00:36;8.07;;;3.70;;
2406;SDS011;37709;53.480;9.688;2023-01-01T02:03:05;5.53;;;3.27;;
2406;SDS011;37709;53.480;9.688;2023-01-01T02:05:38;6.13;;;3.33;;
2406;SDS011;37709;53.480;9.688;2023-01-01T02:08:07;6.10;;;4.40;;
2406;SDS011;37709;53.480;9.688;2023-01-01T02:10:39;10.00;;;4.03;;
2406;SDS011;37709;53.480;9.688;2023-01-01T02:13:06;4.10;;;3.00;;
2406;SDS011;37709;53.480;9.688;2023-01-01T02:15:35;4.97;;;2.90;;
2406;SDS011;37709;53.480;9.688;2023-01-01T02:18:18;4.57;;;2.60;;
2406;SDS011;37709;53.480;9.688;2023-01-01T02:20:53;9.03;;;3.57;;
2406;SDS011;37709;53.480;9.688;2023-01-01T02:23:37;7.57;;;3.10;;
2406;SDS011;37709;53.480;9.688;2023-01-01T02:26:25;3.90;;;3.30;;
2406;SDS011;37709;53.480;9.688;2023-01-01T02:31:37;5.00;;;3.27;;
2406;SDS011;37709;53.480;9.688;2023-01-01T02:34:13;17.73;;;4.67;;
2406;SDS011;37709;53.480;9.688;2023-01-01T02:36:47;6.73;;;4.07;;
2406;SDS011;37709;53.480;9.688;2023-01-01T02:39:18;5.90;;;3.13;;
2406;SDS011;37709;53.480;9.688;2023-01-01T02:41:49;6.77;;;3.43;;
2406;SDS011;37709;53.480;9.688;2023-01-01T02:44:20;8.43;;;3.60;;
2406;SDS011;37709;53.480;9.688;2023-01-01T02:46:50;7.93;;;4.00;;
2406;SDS011;37709;53.480;9.688;2023-01-01T02:49:18;6.03;;;3.93;;
2406;SDS011;37709;53.480;9.688;2023-01-01T02:51:50;5.00;;;2.83;;
2406;SDS011;37709;53.480;9.688;2023-01-01T02:54:36;8.73;;;4.60;;
2406;SDS011;37709;53.480;9.688;2023-01-01T02:57:26;8.00;;;4.17;;
2406;SDS011;37709;53.480;9.688;2023-01-01T03:00:08;6.60;;;3.90;;
2406;SDS011;37709;53.480;9.688;2023-01-01T03:05:44;5.50;;;4.00;;
2406;SDS011;37709;53.480;9.688;2023-01-01T03:08:47;6.57;;;4.40;;
2406;SDS011;37709;53.480;9.688;2023-01-01T03:11:16;7.80;;;5.00;;
2406;SDS011;37709;53.480;9.688;2023-01-01T03:16:28;13.03;;;5.60;;
2406;SDS011;37709;53.480;9.688;2023-01-01T03:24:24;13.10;;;5.47;;
2406;SDS011;37709;53.480;9.688;2023-01-01T03:26:57;12.10;;;5.57;;
2406;SDS011;37709;53.480;9.688;2023-01-01T03:29:30;7.90;;;5.80;;
2406;SDS011;37709;53.480;9.688;2023-01-01T03:32:03;9.77;;;5.90;;
2406;SDS011;37709;53.480;9.688;2023-01-01T03:34:34;10.13;;;5.47;;
2406;SDS011;37709;53.480;9.688;2023-01-01T03:37:08;6.50;;;4.83;;
2406;SDS011;37709;53.480;9.688;2023-01-01T03:39:46;8.03;;;5.87;;
2406;SDS011;37709;53.480;9.688;2023-01-01T03:42:25;7.57;;;5.03;;
2406;SDS011;37709;53.480;9.688;2023-01-01T03:45:04;5.30;;;4.77;;
2406;SDS011;37709;53.480;9.688;2023-01-01T03:47:35;5.83;;;4.53;;
2406;SDS011;37709;53.480;9.688;2023-01-01T03:50:04;9.07;;;5.03;;
2406;SDS011;37709;53.480;9.688;2023-01-01T03:52:39;7.10;;;5.03;;
2406;SDS011;37709;53.480;9.688;2023-01-01T03:55:18;6.27;;;3.80;;
2406;SDS011;37709;53.480;9.688;2023-01-01T03:58:12;6.07;;;5.30;;
2406;SDS011;37709;53.480;9.688;2023-01-01T04:01:01;8.00;;;4.70;;
2406;SDS011;37709;53.480;9.688;2023-01-01T04:03:35;7.87;;;5.07;;
2406;SDS011;37709;53.480;9.688;2023-01-01T04:06:05;6.00;;;4.27;;
2406;SDS011;37709;53.480;9.688;2023-01-01T04:08:33;9.40;;;4.10;;
2406;SDS011;37709;53.480;9.688;2023-01-01T04:11:03;8.27;;;4.40;;
2406;SDS011;37709;53.480;9.688;2023-01-01T04:13:56;6.13;;;4.40;;
2406;SDS011;37709;53.480;9.688;2023-01-01T04:16:23;4.53;;;3.43;;
2406;SDS011;37709;53.480;9.688;2023-01-01T04:18:50;3.50;;;2.90;;
2406;SDS011;37709;53.480;9.688;2023-01-01T04:21:17;6.70;;;3.97;;
2406;SDS011;37709;53.480;9.688;2023-01-01T04:23:44;6.20;;;3.90;;
2406;SDS011;37709;53.480;9.688;2023-01-01T04:26:14;5.53;;;3.70;;
2406;SDS011;37709;53.480;9.688;2023-01-01T04:28:42;7.80;;;4.30;;
2406;SDS011;37709;53.480;9.688;2023-01-01T04:31:09;7.73;;;3.80;;
2406;SDS011;37709;53.480;9.688;2023-01-01T04:33:37;6.50;;;4.00;;
2406;SDS011;37709;53.480;9.688;2023-01-01T04:36:05;6.20;;;4.00;;
2406;SDS011;37709;53.480;9.688;2023-01-01T04:38:35;7.17;;;4.20;;
2406;SDS011;37709;53.480;9.688;2023-01-01T04:41:03;4.20;;;3.20;;
2406;SDS011;37709;53.480;9.688;2023-01-01T04:43:31;7.73;;;4.30;;
2406;SDS011;37709;53.480;9.688;2023-01-01T04:45:59;7.40;;;3.97;;
2406;SDS011;37709;53.480;9.688;2023-01-01T04:48:28;11.50;;;4.10;;
2406;SDS011;37709;53.480;9.688;2023-01-01T04:50:57;5.70;;;3.70;;
2406;SDS011;37709;53.480;9.688;2023-01-01T04:53:33;5.87;;;3.67;;
2406;SDS011;37709;53.480;9.688;2023-01-01T04:56:04;4.77;;;3.47;;
2406;SDS011;37709;53.480;9.688;2023-01-01T04:58:33;8.57;;;3.20;;
2406;SDS011;37709;53.480;9.688;2023-01-01T05:01:02;3.00;;;2.43;;
2406;SDS011;37709;53.480;9.688;2023-01-01T05:03:30;5.77;;;3.07;;
2406;SDS011;37709;53.480;9.688;2023-01-01T05:06:02;5.47;;;3.20;;
2406;SDS011;37709;53.480;9.688;2023-01-01T05:08:35;3.70;;;2.10;;
2406;SDS011;37709;53.480;9.688;2023-01-01T05:11:05;4.60;;;3.20;;
2406;SDS011;37709;53.480;9.688;2023-01-01T05:13:39;6.30;;;3.07;;
2406;SDS011;37709;53.480;9.688;2023-01-01T05:16:12;5.40;;;2.60;;
2406;SDS011;37709;53.480;9.688;2023-01-01T05:18:42;3.03;;;2.73;;
2406;SDS011;37709;53.480;9.688;2023-01-01T05:21:11;5.10;;;3.60;;
2406;SDS011;37709;53.480;9.688;2023-01-01T05:23:40;6.80;;;3.20;;
2406;SDS011;37709;53.480;9.688;2023-01-01T05:26:09;4.70;;;2.80;;
2406;SDS011;37709;53.480;9.688;2023-01-01T05:28:43;4.27;;;2.40;;
2406;SDS011;37709;53.480;9.688;2023-01-01T05:31:12;7.60;;;3.23;;
2406;SDS011;37709;53.480;9.688;2023-01-01T05:33:41;5.67;;;2.57;;
2406;SDS011;37709;53.480;9.688;2023-01-01T05:36:13;4.93;;;2.70;;
2406;SDS011;37709;53.480;9.688;2023-01-01T05:38:44;6.13;;;2.47;;
2406;SDS011;37709;53.480;9.688;2023-01-01T05:41:13;4.30;;;2.60;;
2406;SDS011;37709;53.480;9.688;2023-01-01T05:43:41;4.77;;;2.60;;
2406;SDS011;37709;53.480;9.688;2023-01-01T05:46:12;4.90;;;2.50;;
2406;SDS011;37709;53.480;9.688;2023-01-01T05:48:42;3.03;;;2.80;;
2406;SDS011;37709;53.480;9.688;2023-01-01T05:51:11;4.80;;;2.60;;
2406;SDS011;37709;53.480;9.688;2023-01-01T05:53:40;8.07;;;2.90;;
2406;SDS011;37709;53.480;9.688;2023-01-01T05:56:07;3.77;;;2.13;;
2406;SDS011;37709;53.480;9.688;2023-01-01T05:58:34;3.47;;;1.90;;
2406;SDS011;37709;53.480;9.688;2023-01-01T06:01:06;8.30;;;2.70;;
2406;SDS011;37709;53.480;9.688;2023-01-01T06:03:42;3.80;;;2.40;;
2406;SDS011;37709;53.480;9.688;2023-01-01T06:06:11;4.80;;;2.90;;
2406;SDS011;37709;53.480;9.688;2023-01-01T06:08:40;4.40;;;2.00;;
2406;SDS011;37709;53.480;9.688;2023-01-01T06:11:10;5.30;;;2.53;;
2406;SDS011;37709;53.480;9.688;2023-01-01T06:13:38;5.63;;;2.67;;
2406;SDS011;37709;53.480;9.688;2023-01-01T06:16:05;5.77;;;2.70;;
2406;SDS011;37709;53.480;9.688;2023-01-01T06:18:33;3.20;;;2.73;;
2406;SDS011;37709;53.480;9.688;2023-01-01T06:23:32;4.60;;;1.97;;
2406;SDS011;37709;53.480;9.688;2023-01-01T06:26:04;5.27;;;2.10;;
2406;SDS011;37709;53.480;9.688;2023-01-01T06:28:32;4.63;;;1.80;;
2406;SDS011;37709;53.480;9.688;2023-01-01T06:31:00;6.00;;;2.37;;
2406;SDS011;37709;53.480;9.688;2023-01-01T06:33:29;3.40;;;2.13;;
2406;SDS011;37709;53.480;9.688;2023-01-01T06:35:57;3.87;;;2.20;;
2406;SDS011;37709;53.480;9.688;2023-01-01T06:38:24;5.77;;;2.60;;
2406;SDS011;37709;53.480;9.688;2023-01-01T06:40:55;6.03;;;2.73;;
2406;SDS011;37709;53.480;9.688;2023-01-01T06:43:24;2.57;;;2.30;;
2406;SDS011;37709;53.480;9.688;2023-01-01T06:46:02;2.33;;;1.70;;
2406;SDS011;37709;53.480;9.688;2023-01-01T06:48:32;3.50;;;1.50;;
2406;SDS011;37709;53.480;9.688;2023-01-01T06:51:04;4.67;;;2.30;;
2406;SDS011;37709;53.480;9.688;2023-01-01T06:53:34;9.90;;;2.40;;
2406;SDS011;37709;53.480;9.688;2023-01-01T06:56:01;5.70;;;2.27;;
2406;SDS011;37709;53.480;9.688;2023-01-01T06:58:29;4.67;;;2.90;;
2406;SDS011;37709;53.480;9.688;2023-01-01T07:01:09;3.30;;;2.17;;
2406;SDS011;37709;53.480;9.688;2023-01-01T07:03:37;5.17;;;2.00;;
2406;SDS011;37709;53.480;9.688;2023-01-01T07:06:06;3.57;;;2.40;;
2406;SDS011;37709;53.480;9.688;2023-01-01T07:08:34;3.30;;;2.17;;
2406;SDS011;37709;53.480;9.688;2023-01-01T07:11:02;4.83;;;2.07;;
2406;SDS011;37709;53.480;9.688;2023-01-01T07:13:30;4.80;;;2.00;;
2406;SDS011;37709;53.480;9.688;2023-01-01T07:15:58;8.90;;;2.27;;
2406;SDS011;37709;53.480;9.688;2023-01-01T07:18:26;6.40;;;2.07;;
2406;SDS011;37709;53.480;9.688;2023-01-01T07:20:54;6.10;;;2.07;;
2406;SDS011;37709;53.480;9.688;2023-01-01T07:23:24;3.80;;;1.87;;
2406;SDS011;37709;53.480;9.688;2023-01-01T07:25:52;2.87;;;1.70;;
2406;SDS011;37709;53.480;9.688;2023-01-01T07:28:21;6.40;;;2.00;;
2406;SDS011;37709;53.480;9.688;2023-01-01T07:30:49;4.27;;;1.50;;
2406;SDS011;37709;53.480;9.688;2023-01-01T07:33:18;1.73;;;1.37;;
2406;SDS011;37709;53.480;9.688;2023-01-01T07:35:47;3.80;;;1.57;;
2406;SDS011;37709;53.480;9.688;2023-01-01T07:38:15;1.73;;;1.50;;
2406;SDS011;37709;53.480;9.688;2023-01-01T07:40:42;3.30;;;1.53;;
2406;SDS011;37709;53.480;9.688;2023-01-01T07:43:10;1.97;;;1.30;;
2406;SDS011;37709;53.480;9.688;2023-01-01T07:45:40;5.13;;;1.60;;
2406;SDS011;37709;53.480;9.688;2023-01-01T07:48:10;2.00;;;1.20;;
2406;SDS011;37709;53.480;9.688;2023-01-01T07:50:40;4.47;;;1.60;;
2406;SDS011;37709;53.480;9.688;2023-01-01T07:53:09;4.00;;;1.20;;
2406;SDS011;37709;53.480;9.688;2023-01-01T07:55:37;1.70;;;1.57;;
2406;SDS011;37709;53.480;9.688;2023-01-01T07:58:04;4.40;;;1.60;;
2406;SDS011;37709;53.480;9.688;2023-01-01T08:00:31;2.73;;;1.60;;
2406;SDS011;37709;53.480;9.688;2023-01-01T08:02:59;1.60;;;1.10;;
2406;SDS011;37709;53.480;9.688;2023-01-01T08:05:26;6.57;;;1.40;;
2406;SDS011;37709;53.480;9.688;2023-01-01T08:07:54;2.20;;;1.43;;
2406;SDS011;37709;53.480;9.688;2023-01-01T08:10:21;2.17;;;1.27;;
2406;SDS011;37709;53.480;9.688;2023-01-01T08:12:49;3.50;;;1.70;;
2406;SDS011;37709;53.480;9.688;2023-01-01T08:15:16;2.00;;;1.13;;
2406;SDS011;37709;53.480;9.688;2023-01-01T08:17:43;2.03;;;1.00;;
2406;SDS011;37709;53.480;9.688;2023-01-01T08:20:13;2.13;;;1.07;;
2406;SDS011;37709;53.480;9.688;2023-01-01T08:22:40;1.60;;;0.90;;
2406;SDS011;37709;53.480;9.688;2023-01-01T08:25:07;2.30;;;1.10;;
2406;SDS011;37709;53.480;9.688;2023-01-01T08:27:35;2.80;;;1.00;;
2406;SDS011;37709;53.480;9.688;2023-01-01T08:30:04;2.77;;;1.30;;
2406;SDS011;37709;53.480;9.688;2023-01-01T08:32:32;1.90;;;1.10;;
2406;SDS011;37709;53.480;9.688;2023-01-01T08:34:59;2.40;;;1.30;;
2406;SDS011;37709;53.480;9.688;2023-01-01T08:37:27;7.37;;;0.97;;
2406;SDS011;37709;53.480;9.688;2023-01-01T08:39:54;1.57;;;1.10;;
2406;SDS011;37709;53.480;9.688;2023-01-01T08:42:21;1.97;;;1.07;;
2406;SDS011;37709;53.480;9.688;2023-01-01T08:44:49;1.60;;;1.00;;
2406;SDS011;37709;53.480;9.688;2023-01-01T08:47:17;2.70;;;1.23;;
2406;SDS011;37709;53.480;9.688;2023-01-01T08:49:46;2.20;;;0.93;;
2406;SDS011;37709;53.480;9.688;2023-01-01T08:52:14;2.60;;;1.20;;
2406;SDS011;37709;53.480;9.688;2023-01-01T08:54:41;2.37;;;1.00;;
2406;SDS011;37709;53.480;9.688;2023-01-01T08:57:09;3.30;;;1.20;;
2406;SDS011;37709;53.480;9.688;2023-01-01T08:59:37;1.80;;;1.30;;
2406;SDS011;37709;53.480;9.688;2023-01-01T09:02:04;2.97;;;1.00;;
2406;SDS011;37709;53.480;9.688;2023-01-01T09:04:33;1.90;;;1.00;;
2406;SDS011;37709;53.480;9.688;2023-01-01T09:07:00;2.07;;;1.10;;
2406;SDS011;37709;53.480;9.688;2023-01-01T09:09:28;4.20;;;1.00;;
2406;SDS011;37709;53.480;9.688;2023-01-01T09:11:58;2.20;;;1.20;;
2406;SDS011;37709;53.480;9.688;2023-01-01T09:14:32;1.40;;;1.07;;
2406;SDS011;37709;53.480;9.688;2023-01-01T09:17:00;8.47;;;1.73;;
2406;SDS011;37709;53.480;9.688;2023-01-01T09:19:28;2.43;;;1.13;;
2406;SDS011;37709;53.480;9.688;2023-01-01T09:21:55;2.43;;;1.53;;
2406;SDS011;37709;53.480;9.688;2023-01-01T09:24:23;2.10;;;0.90;;
2406;SDS011;37709;53.480;9.688;2023-01-01T09:26:51;3.30;;;1.10;;
2406;SDS011;37709;53.480;9.688;2023-01-01T09:29:18;1.20;;;1.03;;
2406;SDS011;37709;53.480;9.688;2023-01-01T09:31:48;4.43;;;1.05;;
2406;SDS011;37709;53.480;9.688;2023-01-01T09:34:16;2.03;;;0.80;;
2406;SDS011;37709;53.480;9.688;2023-01-01T09:36:45;2.50;;;1.10;;
2406;SDS011;37709;53.480;9.688;2023-01-01T09:39:13;2.50;;;1.07;;
2406;SDS011;37709;53.480;9.688;2023-01-01T09:41:43;2.40;;;1.30;;
2406;SDS011;37709;53.480;9.688;2023-01-01T09:44:24;1.97;;;0.97;;
2406;SDS011;37709;53.480;9.688;2023-01-01T09:47:36;1.13;;;0.90;;
2406;SDS011;37709;53.480;9.688;2023-01-01T09:50:06;3.53;;;1.30;;
2406;SDS011;37709;53.480;9.688;2023-01-01T09:52:48;2.27;;;1.00;;
2406;SDS011;37709;53.480;9.688;2023-01-01T09:57:54;2.40;;;1.50;;
2406;SDS011;37709;53.480;9.688;2023-01-01T10:00:22;1.80;;;0.97;;
2406;SDS011;37709;53.480;9.688;2023-01-01T10:02:53;3.20;;;1.30;;
2406;SDS011;37709;53.480;9.688;2023-01-01T10:06:08;3.67;;;1.20;;
2406;SDS011;37709;53.480;9.688;2023-01-01T10:08:54;2.83;;;1.00;;
2406;SDS011;37709;53.480;9.688;2023-01-01T10:14:34;2.53;;;1.30;;
2406;SDS011;37709;53.480;9.688;2023-01-01T10:17:16;2.83;;;1.13;;
2406;SDS011;37709;53.480;9.688;2023-01-01T10:20:03;1.57;;;0.77;;
2406;SDS011;37709;53.480;9.688;2023-01-01T10:22:41;1.93;;;1.20;;
2406;SDS011;37709;53.480;9.688;2023-01-01T10:25:25;3.70;;;1.00;;
2406;SDS011;37709;53.480;9.688;2023-01-01T10:28:17;1.47;;;0.70;;
2406;SDS011;37709;53.480;9.688;2023-01-01T10:31:15;2.33;;;0.90;;
2406;SDS011;37709;53.480;9.688;2023-01-01T10:33:46;2.00;;;0.80;;
2406;SDS011;37709;53.480;9.688;2023-01-01T10:36:15;3.10;;;1.00;;
2406;SDS011;37709;53.480;9.688;2023-01-01T10:38:46;2.30;;;0.80;;
2406;SDS011;37709;53.480;9.688;2023-01-01T10:41:14;2.20;;;0.90;;
2406;SDS011;37709;53.480;9.688;2023-01-01T10:43:46;1.93;;;0.80;;
2406;SDS011;37709;53.480;9.688;2023-01-01T10:46:15;3.87;;;0.87;;
2406;SDS011;37709;53.480;9.688;2023-01-01T10:49:03;4.50;;;1.00;;
2406;SDS011;37709;53.480;9.688;2023-01-01T10:51:43;2.65;;;1.10;;
2406;SDS011;37709;53.480;9.688;2023-01-01T10:54:23;1.37;;;0.73;;
2406;SDS011;37709;53.480;9.688;2023-01-01T10:56:57;1.30;;;0.80;;
2406;SDS011;37709;53.480;9.688;2023-01-01T10:59:36;3.33;;;1.03;;
2406;SDS011;37709;53.480;9.688;2023-01-01T11:02:16;2.83;;;1.00;;
2406;SDS011;37709;53.480;9.688;2023-01-01T11:04:52;2.60;;;1.10;;
2406;SDS011;37709;53.480;9.688;2023-01-01T11:07:48;1.20;;;0.70;;
2406;SDS011;37709;53.480;9.688;2023-01-01T11:10:17;1.83;;;0.90;;
2406;SDS011;37709;53.480;9.688;2023-01-01T11:12:49;2.23;;;0.70;;
2406;SDS011;37709;53.480;9.688;2023-01-01T11:15:39;1.93;;;0.90;;
2406;SDS011;37709;53.480;9.688;2023-01-01T11:18:15;1.93;;;0.80;;
2406;SDS011;37709;53.480;9.688;2023-01-01T11:20:52;4.07;;;1.10;;
2406;SDS011;37709;53.480;9.688;2023-01-01T11:23:28;2.53;;;0.93;;
2406;SDS011;37709;53.480;9.688;2023-01-01T11:26:18;2.07;;;0.90;;
2406;SDS011;37709;53.480;9.688;2023-01-01T11:29:00;3.00;;;0.90;;
2406;SDS011;37709;53.480;9.688;2023-01-01T11:31:34;2.57;;;0.90;;
2406;SDS011;37709;53.480;9.688;2023-01-01T11:34:10;1.70;;;0.70;;
2406;SDS011;37709;53.480;9.688;2023-01-01T11:36:50;4.13;;;0.83;;
2406;SDS011;37709;53.480;9.688;2023-01-01T11:39:24;2.93;;;1.13;;
2406;SDS011;37709;53.480;9.688;2023-01-01T11:41:53;1.97;;;0.77;;
2406;SDS011;37709;53.480;9.688;2023-01-01T11:44:24;1.60;;;0.70;;
2406;SDS011;37709;53.480;9.688;2023-01-01T11:47:06;3.43;;;0.80;;
2406;SDS011;37709;53.480;9.688;2023-01-01T11:49:45;1.60;;;0.80;;
2406;SDS011;37709;53.480;9.688;2023-01-01T11:52:34;2.23;;;0.97;;
2406;SDS011;37709;53.480;9.688;2023-01-01T11:55:09;2.00;;;0.87;;
2406;SDS011;37709;53.480;9.688;2023-01-01T11:57:51;3.97;;;0.67;;
2406;SDS011;37709;53.480;9.688;2023-01-01T12:00:28;1.90;;;0.70;;
2406;SDS011;37709;53.480;9.688;2023-01-01T12:03:00;2.00;;;1.00;;
2406;SDS011;37709;53.480;9.688;2023-01-01T12:05:43;3.50;;;1.10;;
2406;SDS011;37709;53.480;9.688;2023-01-01T12:08:24;2.47;;;0.73;;
2406;SDS011;37709;53.480;9.688;2023-01-01T12:11:03;3.73;;;1.00;;
2406;SDS011;37709;53.480;9.688;2023-01-01T12:17:17;1.80;;;0.83;;
2406;SDS011;37709;53.480;9.688;2023-01-01T12:19:58;2.80;;;0.80;;
2406;SDS011;37709;53.480;9.688;2023-01-01T12:22:47;2.40;;;1.00;;
2406;SDS011;37709;53.480;9.688;2023-01-01T12:25:17;1.73;;;0.47;;
2406;SDS011;37709;53.480;9.688;2023-01-01T12:31:02;3.40;;;0.97;;
2406;SDS011;37709;53.480;9.688;2023-01-01T12:33:45;1.67;;;1.03;;
2406;SDS011;37709;53.480;9.688;2023-01-01T12:36:24;1.87;;;0.70;;
2406;SDS011;37709;53.480;9.688;2023-01-01T12:47:48;4.30;;;1.40;;
2406;SDS011;37709;53.480;9.688;2023-01-01T12:50:45;3.03;;;0.80;;
2406;SDS011;37709;53.480;9.688;2023-01-01T12:59:26;1.67;;;0.90;;
2406;SDS011;37709;53.480;9.688;2023-01-01T13:01:58;3.13;;;0.70;;
2406;SDS011;37709;53.480;9.688;2023-01-01T13:04:29;2.83;;;1.33;;
2406;SDS011;37709;53.480;9.688;2023-01-01T13:07:01;2.53;;;0.70;;
2406;SDS011;37709;53.480;9.688;2023-01-01T13:09:35;3.07;;;1.07;;
2406;SDS011;37709;53.480;9.688;2023-01-01T13:12:10;3.93;;;0.77;;
2406;SDS011;37709;53.480;9.688;2023-01-01T13:14:43;1.97;;;1.03;;
2406;SDS011;37709;53.480;9.688;2023-01-01T13:17:16;5.50;;;1.50;;
2406;SDS011;37709;53.480;9.688;2023-01-01T13:19:56;3.10;;;1.43;;
2406;SDS011;37709;53.480;9.688;2023-01-01T13:25:01;3.97;;;1.27;;
2406;SDS011;37709;53.480;9.688;2023-01-01T13:33:22;3.50;;;1.00;;
2406;SDS011;37709;53.480;9.688;2023-01-01T13:38:54;5.77;;;1.37;;
2406;SDS011;37709;53.480;9.688;2023-01-01T13:52:03;3.00;;;1.30;;
2406;SDS011;37709;53.480;9.688;2023-01-01T13:58:09;3.97;;;1.10;;
2406;SDS011;37709;53.480;9.688;2023-01-01T14:00:53;1.37;;;0.80;;
2406;SDS011;37709;53.480;9.688;2023-01-01T14:03:22;3.23;;;1.23;;
2406;SDS011;37709;53.480;9.688;2023-01-01T14:05:57;5.37;;;1.33;;
2406;SDS011;37709;53.480;9.688;2023-01-01T14:08:28;2.93;;;1.10;;
2406;SDS011;37709;53.480;9.688;2023-01-01T14:11:01;3.80;;;1.40;;
2406;SDS011;37709;53.480;9.688;2023-01-01T14:13:42;5.60;;;1.20;;
2406;SDS011;37709;53.480;9.688;2023-01-01T14:16:09;3.70;;;1.53;;
2406;SDS011;37709;53.480;9.688;2023-01-01T14:18:41;4.07;;;1.40;;
2406;SDS011;37709;53.480;9.688;2023-01-01T14:21:17;2.80;;;1.20;;
2406;SDS011;37709;53.480;9.688;2023-01-01T14:23:49;2.73;;;1.20;;
2406;SDS011;37709;53.480;9.688;2023-01-01T14:26:19;5.53;;;1.47;;
2406;SDS011;37709;53.480;9.688;2023-01-01T14:28:54;3.20;;;1.63;;
2406;SDS011;37709;53.480;9.688;2023-01-01T14:31:24;2.97;;;1.10;;
2406;SDS011;37709;53.480;9.688;2023-01-01T14:33:56;4.43;;;1.37;;
2406;SDS011;37709;53.480;9.688;2023-01-01T14:36:24;7.43;;;1.83;;
2406;SDS011;37709;53.480;9.688;2023-01-01T14:38:54;9.30;;;1.83;;
2406;SDS011;37709;53.480;9.688;2023-01-01T14:41:27;3.17;;;1.97;;
2406;SDS011;37709;53.480;9.688;2023-01-01T14:44:05;3.47;;;1.20;;
2406;SDS011;37709;53.480;9.688;2023-01-01T14:46:40;3.37;;;1.00;;
2406;SDS011;37709;53.480;9.688;2023-01-01T14:49:17;4.20;;;1.30;;
2406;SDS011;37709;53.480;9.688;2023-01-01T14:51:59;4.83;;;1.23;;
2406;SDS011;37709;53.480;9.688;2023-01-01T14:54:30;6.97;;;1.77;;
2406;SDS011;37709;53.480;9.688;2023-01-01T14:57:00;6.07;;;1.57;;
2406;SDS011;37709;53.480;9.688;2023-01-01T14:59:32;8.97;;;1.70;;
2406;SDS011;37709;53.480;9.688;2023-01-01T15:04:40;6.17;;;2.13;;
2406;SDS011;37709;53.480;9.688;2023-01-01T15:07:18;7.40;;;1.80;;
2406;SDS011;37709;53.480;9.688;2023-01-01T15:09:49;9.43;;;1.80;;
2406;SDS011;37709;53.480;9.688;2023-01-01T15:12:17;6.43;;;1.87;;
2406;SDS011;37709;53.480;9.688;2023-01-01T15:17:57;7.50;;;2.43;;
2406;SDS011;37709;53.480;9.688;2023-01-01T15:20:24;5.87;;;1.50;;
2406;SDS011;37709;53.480;9.688;2023-01-01T15:22:52;4.93;;;1.40;;
2406;SDS011;37709;53.480;9.688;2023-01-01T15:25:21;5.70;;;1.57;;
2406;SDS011;37709;53.480;9.688;2023-01-01T15:27:53;3.97;;;1.40;;
2406;SDS011;37709;53.480;9.688;2023-01-01T15:30:25;3.40;;;1.20;;
2406;SDS011;37709;53.480;9.688;2023-01-01T15:33:04;4.63;;;2.00;;
2406;SDS011;37709;53.480;9.688;2023-01-01T15:35:35;4.90;;;1.80;;
2406;SDS011;37709;53.480;9.688;2023-01-01T15:38:09;5.57;;;1.70;;
2406;SDS011;37709;53.480;9.688;2023-01-01T15:40:43;3.40;;;1.67;;
2406;SDS011;37709;53.480;9.688;2023-01-01T15:43:19;5.87;;;3.30;;
2406;SDS011;37709;53.480;9.688;2023-01-01T15:45:55;6.80;;;2.10;;
2406;SDS011;37709;53.480;9.688;2023-01-01T15:48:47;6.70;;;1.50;;
2406;SDS011;37709;53.480;9.688;2023-01-01T15:51:20;4.47;;;1.47;;
2406;SDS011;37709;53.480;9.688;2023-01-01T15:56:26;5.23;;;2.13;;
2406;SDS011;37709;53.480;9.688;2023-01-01T15:58:57;5.70;;;2.00;;
2406;SDS011;37709;53.480;9.688;2023-01-01T16:01:34;5.03;;;2.03;;
2406;SDS011;37709;53.480;9.688;2023-01-01T16:06:55;12.33;;;2.63;;
2406;SDS011;37709;53.480;9.688;2023-01-01T16:09:24;6.07;;;2.37;;
2406;SDS011;37709;53.480;9.688;2023-01-01T16:11:53;6.40;;;3.20;;
2406;SDS011;37709;53.480;9.688;2023-01-01T16:14:21;4.87;;;2.80;;
2406;SDS011;37709;53.480;9.688;2023-01-01T16:16:53;5.90;;;2.47;;
2406;SDS011;37709;53.480;9.688;2023-01-01T16:19:23;5.97;;;2.60;;
2406;SDS011;37709;53.480;9.688;2023-01-01T16:21:50;3.97;;;2.30;;
2406;SDS011;37709;53.480;9.688;2023-01-01T16:24:18;5.10;;;2.30;;
2406;SDS011;37709;53.480;9.688;2023-01-01T16:26:46;3.20;;;1.93;;
2406;SDS011;37709;53.480;9.688;2023-01-01T16:29:14;8.40;;;2.93;;
2406;SDS011;37709;53.480;9.688;2023-01-01T16:31:42;3.57;;;1.83;;
2406;SDS011;37709;53.480;9.688;2023-01-01T16:34:13;8.30;;;2.60;;
2406;SDS011;37709;53.480;9.688;2023-01-01T16:36:41;4.20;;;2.13;;
2406;SDS011;37709;53.480;9.688;2023-01-01T16:39:10;3.90;;;2.90;;
2406;SDS011;37709;53.480;9.688;2023-01-01T16:41:39;7.93;;;5.40;;
2406;SDS011;37709;53.480;9.688;2023-01-01T16:44:09;6.60;;;2.47;;
2406;SDS011;37709;53.480;9.688;2023-01-01T16:46:41;8.97;;;2.60;;
2406;SDS011;37709;53.480;9.688;2023-01-01T16:49:08;6.70;;;2.40;;
2406;SDS011;37709;53.480;9.688;2023-01-01T16:51:36;6.07;;;2.87;;
2406;SDS011;37709;53.480;9.688;2023-01-01T16:54:09;4.63;;;2.67;;